createdAt,value
2017-03-18T12:08:11.678Z,44.70
2017-03-18T12:09:11.355Z,44.50
2017-03-18T12:10:10.828Z,44.40
2017-03-18T12:11:10.089Z,44.10
2017-03-18T12:12:09.347Z,44.30
2017-03-18T12:13:09.936Z,45.00
2017-03-18T12:14:09.357Z,45.10
2017-03-18T12:15:08.387Z,45.80
2017-03-18T12:16:08.011Z,45.50
2017-03-18T12:17:07.158Z,45.70
2017-03-18T12:18:06.287Z,45.30
2017-03-18T12:19:05.358Z,45.30
2017-03-18T12:20:04.312Z,45.40
2017-03-18T12:21:03.592Z,45.30
2017-03-18T12:22:02.682Z,45.30
2017-03-18T12:23:01.638Z,45.00
2017-03-18T12:24:00.571Z,45.20
2017-03-18T12:24:59.552Z,44.50
2017-03-18T12:25:58.614Z,44.00
2017-03-18T12:26:57.544Z,43.70
2017-03-18T12:27:56.541Z,43.50
2017-03-18T12:28:55.555Z,43.50
2017-03-18T12:29:54.985Z,43.50
2017-03-18T12:30:53.444Z,43.50
2017-03-18T12:31:52.424Z,43.20
2017-03-18T12:32:51.208Z,43.20
2017-03-18T12:33:50.383Z,43.10
2017-03-18T12:34:49.546Z,42.90
2017-03-18T12:35:48.862Z,43.00
2017-03-18T12:36:48.276Z,43.00
2017-03-18T12:37:48.135Z,43.10
2017-03-18T12:38:51.552Z,44.00
2017-03-18T12:39:51.656Z,46.10
2017-03-18T12:40:50.964Z,47.90
2017-03-18T12:41:50.252Z,49.30
2017-03-18T12:42:49.484Z,50.30
2017-03-18T12:43:48.832Z,51.10
2017-03-18T12:44:48.084Z,51.80
2017-03-18T12:45:47.707Z,52.20
2017-03-18T12:46:47.244Z,52.80
2017-03-18T12:47:46.334Z,53.00
2017-03-18T12:48:45.731Z,53.90
2017-03-18T12:49:45.034Z,53.50
2017-03-18T12:50:44.676Z,53.70
2017-03-18T12:51:43.120Z,53.60
2017-03-18T12:52:42.299Z,53.90
2017-03-18T12:53:41.455Z,54.00
2017-03-18T12:54:40.713Z,54.10
2017-03-18T12:55:39.768Z,54.00
2017-03-18T12:56:40.522Z,54.30
2017-03-18T12:57:39.921Z,54.30
2017-03-18T12:58:39.070Z,54.30
2017-03-18T12:59:38.243Z,54.20
2017-03-18T13:00:37.080Z,54.10
2017-03-18T13:01:36.400Z,54.30
2017-03-18T13:02:35.918Z,54.20
2017-03-18T13:03:34.939Z,54.30
2017-03-18T13:04:34.213Z,54.40
2017-03-18T13:05:33.204Z,54.40
2017-03-18T13:06:32.748Z,54.40
2017-03-18T13:07:32.455Z,54.40
2017-03-18T13:08:31.701Z,54.10
2017-03-18T13:09:30.714Z,54.60
2017-03-18T13:10:29.643Z,53.90
2017-03-18T13:11:28.729Z,54.10
2017-03-18T13:12:27.613Z,54.20
2017-03-18T13:13:26.631Z,54.10
2017-03-18T13:14:25.695Z,54.20
2017-03-18T13:15:24.560Z,54.00
2017-03-18T13:16:23.602Z,54.10
2017-03-18T13:17:22.581Z,54.10
2017-03-18T13:18:21.506Z,54.50
2017-03-18T13:19:20.502Z,54.60
2017-03-18T13:20:20.185Z,54.70
2017-03-18T13:21:19.955Z,54.80
2017-03-18T13:22:18.971Z,54.70
2017-03-18T13:23:18.067Z,55.00
2017-03-18T13:24:17.009Z,54.90
2017-03-18T13:25:16.376Z,55.20
2017-03-18T13:26:15.552Z,55.20
2017-03-18T13:27:15.593Z,55.20
2017-03-18T13:28:14.707Z,55.20
2017-03-18T13:29:13.709Z,55.30
2017-03-18T13:30:13.607Z,55.30
2017-03-18T13:31:12.675Z,55.30
2017-03-18T13:32:11.547Z,55.20
2017-03-18T13:33:11.692Z,55.30
2017-03-18T13:34:11.039Z,55.80
2017-03-18T13:35:09.962Z,57.00
2017-03-18T13:36:08.618Z,55.60
2017-03-18T13:37:07.250Z,55.10
2017-03-18T13:38:05.848Z,54.90
2017-03-18T13:39:05.702Z,55.30
2017-03-18T13:40:05.082Z,54.80
2017-03-18T13:41:04.324Z,55.10
2017-03-18T13:42:02.901Z,54.60
2017-03-18T13:43:01.589Z,55.50
2017-03-18T13:44:00.200Z,55.10
2017-03-18T13:44:59.064Z,54.50
2017-03-18T13:45:58.117Z,54.70
2017-03-18T13:46:57.761Z,55.00
2017-03-18T13:47:56.318Z,55.30
2017-03-18T13:48:54.948Z,57.50
2017-03-18T13:49:54.269Z,55.20
2017-03-18T13:50:52.880Z,55.00
2017-03-18T13:51:52.614Z,56.60
2017-03-18T13:52:51.302Z,55.00
2017-03-18T13:53:50.002Z,55.50
2017-03-18T13:54:49.160Z,54.80
2017-03-18T13:55:48.169Z,54.90
2017-03-18T13:56:46.833Z,55.40
2017-03-18T13:57:45.608Z,55.00
2017-03-18T13:58:44.275Z,54.70
2017-03-18T13:59:43.670Z,54.70
2017-03-18T14:00:42.650Z,54.70
2017-03-18T14:01:41.647Z,54.80
2017-03-18T14:02:40.876Z,54.70
2017-03-18T14:03:40.132Z,54.50
2017-03-18T14:04:38.967Z,54.50
2017-03-18T14:05:38.080Z,54.60
2017-03-18T14:06:37.412Z,54.60
2017-03-18T14:07:36.506Z,54.70
2017-03-18T14:08:37.186Z,54.70
2017-03-18T14:09:36.299Z,54.80
2017-03-18T14:10:35.498Z,54.80
2017-03-18T14:11:34.746Z,54.80
2017-03-18T14:12:34.123Z,54.90
2017-03-18T14:13:33.198Z,54.90
2017-03-18T14:14:34.061Z,54.90
2017-03-18T14:15:33.465Z,54.90
2017-03-18T14:16:33.189Z,54.60
2017-03-18T14:17:32.343Z,54.80
2017-03-18T14:18:31.335Z,54.70
2017-03-18T14:19:30.289Z,54.70
2017-03-18T14:20:30.442Z,54.50
2017-03-18T14:21:29.546Z,54.50
2017-03-18T14:22:28.803Z,54.40
2017-03-18T14:23:28.081Z,54.40
2017-03-18T14:24:27.382Z,54.50
2017-03-18T14:25:26.548Z,54.40
2017-03-18T14:26:25.144Z,53.80
2017-03-18T14:27:24.278Z,53.80
2017-03-18T14:28:23.544Z,53.90
2017-03-18T14:29:22.836Z,53.70
2017-03-18T14:30:21.919Z,53.70
2017-03-18T14:31:21.123Z,53.90
2017-03-18T14:32:20.278Z,53.90
2017-03-18T14:33:19.475Z,53.90
2017-03-18T14:34:19.367Z,53.90
2017-03-18T14:35:18.326Z,53.90
2017-03-18T14:36:17.502Z,53.70
2017-03-18T14:37:17.958Z,53.80
2017-03-18T14:38:19.382Z,53.70
2017-03-18T14:39:19.396Z,53.60
2017-03-18T14:40:18.530Z,53.60
2017-03-18T14:41:21.759Z,53.50
2017-03-18T14:42:20.727Z,53.50
2017-03-18T14:43:19.674Z,53.50
2017-03-18T14:44:21.033Z,53.50
2017-03-18T14:45:19.962Z,53.50
2017-03-18T14:46:19.066Z,53.50
2017-03-18T14:47:18.132Z,53.40
2017-03-18T14:48:17.357Z,53.40
2017-03-18T14:49:17.002Z,53.40
2017-03-18T14:50:16.289Z,53.30
2017-03-18T14:51:15.543Z,53.40
2017-03-18T14:52:15.627Z,53.30
2017-03-18T14:53:14.678Z,53.30
2017-03-18T14:54:13.782Z,53.20
2017-03-18T14:55:13.049Z,53.20
2017-03-18T14:56:12.160Z,53.10
2017-03-18T14:57:11.103Z,53.10
2017-03-18T14:58:10.091Z,53.10
2017-03-18T14:59:09.247Z,53.10
2017-03-18T15:00:08.536Z,53.20
2017-03-18T15:01:07.650Z,53.10
2017-03-18T15:02:06.522Z,53.10
2017-03-18T15:03:05.511Z,53.20
2017-03-18T15:04:04.732Z,53.20
2017-03-18T15:05:03.774Z,53.10
2017-03-18T15:06:03.383Z,53.20
2017-03-18T15:07:02.368Z,53.30
2017-03-18T15:08:01.604Z,53.30
2017-03-18T15:09:00.807Z,53.30
2017-03-18T15:10:01.818Z,53.30
2017-03-18T15:11:01.104Z,53.30
2017-03-18T15:12:00.358Z,53.30
2017-03-18T15:12:59.341Z,53.30
2017-03-18T15:13:58.619Z,53.40
2017-03-18T15:14:57.862Z,53.30
2017-03-18T15:15:56.892Z,53.40
2017-03-18T15:16:55.885Z,53.30
2017-03-18T15:17:54.864Z,53.30
2017-03-18T15:18:54.052Z,53.30
2017-03-18T15:19:53.149Z,53.30
2017-03-18T15:20:52.443Z,53.40
2017-03-18T15:21:51.557Z,53.30
2017-03-18T15:22:51.104Z,53.30
2017-03-18T15:23:51.078Z,53.20
2017-03-18T15:24:50.204Z,53.30
2017-03-18T15:25:49.748Z,53.30
2017-03-18T15:26:48.839Z,53.10
2017-03-18T15:27:47.773Z,53.20
2017-03-18T15:28:47.399Z,53.10
2017-03-18T15:29:52.440Z,53.10
2017-03-18T15:30:52.912Z,53.10
2017-03-18T15:31:52.300Z,53.00
2017-03-18T15:32:52.204Z,53.00
2017-03-18T15:33:52.697Z,53.00
2017-03-18T15:34:51.867Z,53.00
2017-03-18T15:35:51.135Z,53.50
2017-03-18T15:36:50.478Z,53.60
2017-03-18T15:37:49.844Z,54.30
2017-03-18T15:39:22.126Z,54.40
2017-03-18T15:43:25.867Z,51.50
2017-03-18T15:44:25.122Z,51.40
2017-03-18T15:45:24.034Z,51.40
2017-03-18T16:06:11.323Z,51.60
2017-03-18T16:07:10.343Z,51.40
2017-03-18T16:24:05.018Z,49.80
2017-03-18T16:25:04.403Z,49.70
2017-03-18T16:29:15.685Z,50.10
2017-03-18T16:30:15.621Z,50.30
2017-03-18T16:31:14.850Z,50.40
2017-03-18T16:32:14.148Z,50.40
2017-03-18T16:33:13.805Z,50.50
2017-03-18T16:34:13.158Z,50.90
2017-03-18T16:35:15.388Z,50.60
2017-03-18T16:36:14.416Z,50.40
2017-03-18T16:37:13.725Z,50.60
2017-03-18T16:38:14.113Z,50.60
2017-03-18T16:39:13.498Z,51.00
2017-03-18T16:40:12.820Z,50.90
2017-03-18T16:41:11.807Z,51.00
2017-03-18T16:42:11.122Z,51.00
2017-03-18T16:43:10.081Z,50.90
2017-03-18T16:44:09.406Z,51.00
2017-03-18T16:45:08.657Z,51.10
2017-03-18T16:46:08.031Z,51.00
2017-03-18T16:47:07.803Z,51.10
2017-03-18T16:48:07.139Z,51.20
2017-03-18T16:49:06.399Z,51.30
2017-03-18T16:50:07.409Z,51.40
2017-03-18T16:51:06.865Z,51.30
2017-03-18T16:52:05.979Z,50.30
2017-03-18T16:54:15.934Z,50.60
2017-03-18T16:55:14.769Z,49.70
2017-03-18T16:56:13.849Z,49.60
2017-03-18T16:57:12.878Z,49.70
2017-03-18T16:58:11.905Z,49.70
2017-03-18T16:59:12.541Z,49.80
2017-03-18T17:00:11.529Z,49.60
2017-03-18T17:01:10.775Z,49.60
2017-03-18T17:02:09.931Z,49.70
2017-03-18T17:03:08.932Z,49.70
2017-03-18T17:04:07.737Z,49.60
2017-03-18T17:05:06.601Z,49.60
2017-03-18T17:06:05.706Z,50.20
2017-03-18T17:07:05.871Z,50.20
2017-03-18T17:08:04.906Z,50.10
2017-03-18T17:09:04.321Z,50.20
2017-03-18T17:13:58.113Z,50.40
2017-03-18T17:15:01.843Z,50.20
2017-03-18T17:16:13.867Z,50.20
2017-03-18T17:17:25.761Z,50.30
2017-03-18T17:18:25.261Z,50.40
2017-03-18T17:19:24.271Z,50.30
2017-03-18T17:20:23.399Z,50.40
2017-03-18T17:21:22.709Z,50.30
2017-03-18T17:45:02.371Z,46.70
2017-03-18T17:46:01.335Z,46.90
2017-03-18T17:47:00.261Z,47.40
2017-03-18T17:47:59.188Z,47.60
2017-03-18T17:48:58.307Z,48.30
2017-03-18T17:49:58.807Z,48.30
2017-03-18T17:50:59.435Z,48.60
2017-03-18T17:57:12.134Z,61.20
2017-03-18T17:58:11.959Z,58.80
2017-03-18T17:59:12.011Z,57.40
2017-03-18T18:00:11.302Z,57.00
2017-03-18T18:01:10.870Z,56.10
2017-03-18T18:02:11.109Z,55.80
2017-03-18T18:03:11.142Z,55.50
2017-03-18T18:04:10.418Z,55.20
2017-03-18T18:05:10.822Z,55.10
2017-03-18T18:06:10.112Z,54.90
2017-03-18T18:07:09.386Z,54.60
2017-03-18T18:08:08.680Z,54.30
2017-03-18T18:09:07.781Z,54.20
2017-03-18T18:10:07.675Z,53.70
2017-03-18T18:11:06.824Z,53.70
2017-03-18T18:12:07.132Z,53.70
2017-03-18T18:13:06.636Z,53.60
2017-03-18T18:14:05.967Z,53.60
2017-03-18T18:15:05.109Z,53.50
2017-03-18T18:16:03.952Z,53.30
2017-03-18T18:17:03.071Z,53.40
2017-03-18T18:18:03.110Z,53.10
2017-03-18T18:19:02.280Z,52.90
2017-03-18T18:20:01.706Z,52.90
2017-03-18T18:21:00.957Z,52.90
2017-03-18T18:22:00.285Z,53.50
2017-03-18T18:22:59.882Z,52.90
2017-03-18T18:23:59.008Z,52.70
2017-03-18T18:24:57.844Z,52.70
2017-03-18T18:25:56.875Z,52.80
2017-03-18T18:26:55.817Z,52.60
2017-03-18T18:27:54.460Z,52.50
2017-03-18T18:28:53.545Z,52.60
2017-03-18T18:29:52.755Z,52.40
2017-03-18T18:30:51.844Z,52.60
2017-03-18T18:31:52.035Z,52.60
2017-03-18T18:32:51.331Z,52.50
2017-03-18T18:33:50.656Z,52.30
2017-03-18T18:34:50.709Z,52.50
2017-03-18T18:35:51.572Z,52.50
2017-03-18T18:36:51.085Z,52.30
2017-03-18T18:37:50.694Z,52.20
2017-03-18T18:38:49.430Z,52.40
2017-03-18T18:39:48.613Z,52.50
2017-03-18T18:40:48.134Z,52.60
2017-03-18T18:41:48.163Z,52.60
2017-03-18T18:42:47.220Z,52.70
2017-03-18T18:43:46.281Z,52.60
2017-03-18T18:44:45.228Z,52.80
2017-03-18T18:45:44.442Z,52.70
2017-03-18T18:46:43.932Z,52.50
2017-03-18T18:47:43.043Z,52.20
2017-03-18T18:48:42.120Z,51.70
2017-03-18T18:49:41.579Z,50.50
2017-03-18T18:50:40.711Z,49.90
2017-03-18T18:51:40.153Z,50.10
2017-03-18T18:52:39.482Z,51.10
2017-03-18T18:53:39.410Z,51.00
2017-03-18T18:54:38.569Z,51.10
2017-03-18T18:55:37.780Z,50.80
2017-03-18T18:57:36.400Z,50.60
2017-03-18T18:58:35.515Z,50.60
2017-03-18T18:59:35.104Z,50.60
2017-03-18T19:00:34.124Z,50.70
2017-03-18T19:01:33.636Z,50.70
2017-03-18T19:02:32.781Z,50.80
2017-03-18T19:03:32.609Z,50.90
2017-03-18T19:04:32.155Z,51.10
2017-03-18T19:05:31.802Z,50.90
2017-03-18T19:06:31.204Z,50.90
2017-03-18T19:07:30.692Z,51.00
2017-03-18T19:08:30.549Z,51.00
2017-03-18T19:09:29.737Z,51.00
2017-03-18T19:10:29.041Z,50.50
2017-03-18T19:11:28.254Z,50.50
2017-03-18T19:12:29.537Z,50.80
2017-03-18T19:13:28.548Z,50.80
2017-03-18T19:14:27.761Z,50.80
2017-03-18T19:15:28.494Z,51.10
2017-03-18T19:16:27.536Z,51.30
2017-03-18T19:17:26.967Z,50.90
2017-03-18T19:18:26.326Z,51.10
2017-03-18T19:19:26.039Z,51.60
2017-03-18T19:20:25.291Z,51.50
2017-03-18T19:21:26.582Z,51.60
2017-03-18T19:22:26.474Z,51.80
2017-03-18T19:23:25.353Z,51.60
2017-03-18T19:24:25.150Z,51.70
2017-03-18T19:25:24.001Z,51.20
2017-03-18T19:26:23.483Z,51.20
2017-03-18T19:27:22.107Z,51.20
2017-03-18T19:28:21.130Z,51.30
2017-03-18T19:29:20.259Z,51.50
2017-03-18T19:30:19.575Z,51.30
2017-03-18T19:31:18.719Z,51.30
2017-03-18T19:32:17.868Z,51.60
2017-03-18T19:33:16.541Z,51.10
2017-03-18T19:34:15.352Z,51.80
2017-03-18T19:35:14.090Z,51.20
2017-03-18T19:36:12.961Z,51.10
2017-03-18T19:37:12.452Z,51.00
2017-03-18T19:38:11.193Z,51.10
2017-03-18T19:39:09.916Z,51.30
2017-03-18T19:40:09.710Z,51.40
2017-03-18T19:41:08.950Z,51.30
2017-03-18T19:42:08.437Z,51.30
2017-03-18T19:43:07.602Z,51.00
2017-03-18T19:44:06.334Z,51.00
2017-03-18T19:45:05.219Z,51.40
2017-03-18T19:46:04.105Z,51.30
2017-03-18T19:47:05.874Z,51.40
2017-03-18T19:48:05.092Z,51.20
2017-03-18T19:49:04.176Z,51.00
2017-03-18T19:50:04.101Z,51.20
2017-03-18T19:51:03.274Z,51.10
2017-03-18T19:52:02.565Z,51.10
2017-03-18T19:53:02.369Z,51.00
2017-03-18T19:54:01.443Z,51.00
2017-03-18T19:55:02.597Z,51.00
2017-03-18T19:56:02.509Z,51.00
2017-03-18T19:57:01.792Z,51.00
2017-03-18T19:58:03.160Z,51.30
2017-03-18T19:59:03.287Z,51.30
2017-03-18T20:00:02.514Z,51.10
2017-03-18T20:01:01.724Z,51.10
2017-03-18T20:02:01.258Z,51.10
2017-03-18T20:03:01.361Z,51.20
2017-03-18T20:04:00.848Z,51.10
2017-03-18T20:05:00.093Z,51.00
2017-03-18T20:05:59.204Z,51.10
2017-03-18T20:06:58.581Z,51.10
2017-03-18T20:07:57.531Z,51.00
2017-03-18T20:08:58.097Z,51.10
2017-03-18T20:09:57.135Z,51.10
2017-03-18T20:10:56.179Z,51.10
2017-03-18T20:11:56.816Z,51.00
2017-03-18T20:12:56.888Z,51.10
2017-03-18T20:13:57.483Z,51.40
2017-03-18T20:14:57.807Z,51.10
2017-03-18T20:15:58.955Z,51.10
2017-03-18T20:16:58.916Z,51.20
2017-03-18T20:17:58.375Z,51.00
2017-03-18T20:18:57.462Z,51.30
2017-03-18T20:19:56.626Z,51.30
2017-03-18T20:20:55.790Z,51.20
2017-03-18T20:21:54.867Z,51.20
2017-03-18T20:22:53.953Z,51.10
2017-03-18T20:23:52.977Z,51.00
2017-03-18T20:24:52.099Z,51.20
2017-03-18T20:25:51.382Z,51.10
2017-03-18T20:26:50.510Z,51.40
2017-03-18T20:27:49.706Z,51.30
2017-03-18T20:28:48.719Z,51.30
2017-03-18T20:29:48.206Z,51.20
2017-03-18T20:30:47.125Z,51.40
2017-03-18T20:31:46.130Z,51.40
2017-03-18T20:32:46.341Z,51.30
2017-03-18T20:33:45.611Z,51.40
2017-03-18T20:34:45.379Z,51.30
2017-03-18T20:35:44.684Z,51.30
2017-03-18T20:36:43.718Z,51.30
2017-03-18T20:37:43.229Z,51.20
2017-03-18T20:38:42.870Z,51.40
2017-03-18T20:39:42.185Z,51.30
2017-03-18T20:40:41.322Z,51.40
2017-03-18T20:41:40.493Z,51.30
2017-03-18T20:42:40.149Z,51.50
2017-03-18T20:43:40.264Z,51.30
2017-03-18T20:44:39.441Z,51.20
2017-03-18T20:45:39.905Z,51.40
2017-03-18T20:46:40.254Z,51.30
2017-03-18T20:47:41.392Z,51.40
2017-03-18T20:48:41.324Z,51.40
2017-03-18T20:49:42.067Z,51.40
2017-03-18T20:50:41.331Z,51.40
2017-03-18T20:51:41.209Z,51.30
2017-03-18T20:52:40.455Z,51.50
2017-03-18T20:53:40.937Z,51.50
2017-03-18T20:54:42.866Z,51.40
2017-03-18T20:55:43.112Z,51.40
2017-03-18T20:56:42.973Z,51.40
2017-03-18T20:57:43.144Z,51.40
2017-03-18T20:58:46.017Z,51.40
2017-03-18T20:59:46.055Z,51.40
2017-03-18T21:00:47.541Z,51.40
2017-03-18T21:01:47.352Z,51.90
2017-03-18T21:02:47.497Z,51.90
2017-03-18T21:03:47.831Z,52.30
2017-03-18T21:04:47.559Z,51.60
2017-03-18T21:05:48.129Z,51.70
2017-03-18T21:06:47.939Z,51.70
2017-03-18T21:07:49.116Z,51.80
2017-03-18T21:08:50.622Z,51.90
2017-03-18T21:09:52.140Z,51.60
2017-03-18T21:10:52.660Z,52.00
2017-03-18T21:12:52.781Z,52.20
2017-03-18T21:13:53.357Z,52.00
2017-03-18T21:14:53.434Z,52.20
2017-03-18T21:15:53.384Z,52.00
2017-03-18T21:16:53.047Z,52.00
2017-03-18T21:17:54.148Z,52.20
2017-03-18T21:18:55.518Z,52.30
2017-03-18T21:19:55.375Z,53.10
2017-03-18T21:20:54.939Z,52.20
2017-03-18T21:21:55.963Z,52.10
2017-03-18T21:22:55.633Z,52.10
2017-03-18T21:23:56.267Z,52.30
2017-03-18T21:24:57.476Z,52.80
2017-03-18T21:25:57.295Z,52.10
2017-03-18T21:26:56.801Z,52.70
2017-03-18T21:27:56.835Z,52.10
2017-03-18T21:28:57.838Z,52.00
2017-03-18T21:29:57.764Z,52.10
2017-03-18T21:30:58.221Z,52.10
2017-03-18T21:31:58.787Z,52.00
2017-03-18T21:32:58.791Z,52.80
2017-03-18T21:34:00.327Z,53.20
2017-03-18T21:35:00.743Z,53.00
2017-03-18T21:36:01.029Z,53.00
2017-03-18T21:37:01.258Z,52.90
2017-03-18T21:38:01.394Z,52.50
2017-03-18T21:39:01.789Z,52.80
2017-03-18T21:40:00.988Z,52.00
2017-03-18T21:41:44.229Z,50.80
2017-03-18T21:42:43.557Z,51.70
2017-03-18T21:43:43.749Z,52.10
2017-03-18T21:44:42.898Z,52.30
2017-03-18T21:45:42.078Z,52.30
2017-03-18T21:46:41.121Z,52.10
2017-03-18T21:47:40.199Z,51.90
2017-03-18T21:48:39.184Z,51.50
2017-03-18T21:49:38.293Z,50.80
2017-03-18T21:50:37.295Z,50.90
2017-03-18T21:51:37.201Z,50.30
2017-03-18T21:52:37.504Z,50.30
2017-03-18T21:53:36.568Z,50.20
2017-03-18T21:54:36.183Z,50.30
2017-03-18T21:55:35.127Z,50.30
2017-03-18T21:56:33.992Z,50.30
2017-03-18T21:57:32.762Z,50.30
2017-03-18T21:58:32.065Z,50.30
2017-03-18T21:59:31.699Z,50.30
2017-03-18T22:00:30.676Z,50.30
2017-03-18T22:01:33.567Z,50.30
2017-03-18T22:02:32.448Z,50.40
2017-03-18T22:03:32.005Z,50.30
2017-03-18T22:04:30.892Z,50.30
2017-03-18T22:05:29.783Z,50.40
2017-03-18T22:06:28.719Z,50.40
2017-03-18T22:07:29.346Z,50.30
2017-03-18T22:08:28.239Z,50.50
2017-03-18T22:09:27.690Z,50.40
2017-03-18T22:10:26.618Z,50.40
2017-03-18T22:11:25.543Z,51.10
2017-03-18T22:12:24.440Z,50.40
2017-03-18T22:13:23.387Z,50.40
2017-03-18T22:14:22.228Z,50.40
2017-03-18T22:15:21.793Z,50.30
2017-03-18T22:16:20.719Z,50.40
2017-03-18T22:17:19.592Z,50.40
2017-03-18T22:18:20.083Z,50.40
2017-03-18T22:19:18.915Z,50.40
2017-03-18T22:20:17.788Z,50.40
2017-03-18T22:21:17.944Z,50.40
2017-03-18T22:22:16.857Z,50.40
2017-03-18T22:23:15.891Z,50.40
2017-03-18T22:24:16.022Z,50.40
2017-03-18T22:25:14.983Z,51.20
2017-03-18T22:26:15.737Z,50.40
2017-03-18T22:27:14.585Z,50.40
2017-03-18T22:28:13.435Z,50.50
2017-03-18T22:29:12.334Z,50.50
2017-03-18T22:30:12.175Z,50.50
2017-03-18T22:31:11.115Z,50.40
2017-03-18T22:32:10.006Z,50.40
2017-03-18T22:33:08.963Z,50.40
2017-03-18T22:34:08.910Z,50.40
2017-03-18T22:35:07.853Z,50.40
2017-03-18T22:36:06.767Z,50.40
2017-03-18T22:37:06.415Z,50.50
2017-03-18T22:38:05.375Z,50.50
2017-03-18T22:39:04.632Z,50.50
2017-03-18T22:40:13.115Z,50.40
2017-03-18T22:41:12.077Z,50.40
2017-03-18T22:42:14.759Z,50.40
2017-03-18T22:43:13.797Z,50.40
2017-03-18T22:44:12.794Z,50.40
2017-03-18T22:45:11.962Z,50.50
2017-03-18T22:46:10.860Z,50.40
2017-03-18T22:47:09.735Z,50.40
2017-03-18T22:48:08.470Z,50.50
2017-03-18T22:49:08.966Z,50.50
2017-03-18T22:50:07.922Z,50.40
2017-03-18T22:51:06.767Z,50.40
2017-03-18T22:52:06.122Z,50.50
2017-03-18T22:53:04.852Z,50.50
2017-03-18T22:54:03.789Z,50.50
2017-03-18T22:55:03.191Z,50.40
2017-03-18T22:56:02.025Z,50.50
2017-03-18T22:57:00.947Z,50.50
2017-03-18T22:57:59.667Z,50.50
2017-03-18T22:58:58.245Z,50.50
2017-03-18T22:59:56.056Z,50.50
2017-03-18T23:00:54.674Z,50.40
2017-03-18T23:01:54.104Z,50.30
2017-03-18T23:02:52.681Z,50.50
2017-03-18T23:03:54.946Z,50.30
2017-03-18T23:04:53.512Z,50.40
2017-03-18T23:05:52.071Z,50.30
2017-03-18T23:06:50.658Z,50.40
2017-03-18T23:07:49.617Z,50.30
2017-03-18T23:08:48.256Z,50.40
2017-03-18T23:09:46.834Z,50.40
2017-03-18T23:10:45.407Z,50.30
2017-03-18T23:11:44.867Z,50.30
2017-03-18T23:12:43.461Z,50.30
2017-03-18T23:13:42.072Z,50.20
2017-03-18T23:14:40.664Z,50.00
2017-03-18T23:15:39.253Z,50.20
2017-03-18T23:16:38.738Z,50.20
2017-03-18T23:17:37.307Z,50.20
2017-03-18T23:18:35.918Z,50.30
2017-03-18T23:19:34.519Z,50.20
2017-03-18T23:20:33.079Z,50.10
2017-03-18T23:21:31.639Z,50.20
2017-03-18T23:22:32.267Z,50.30
2017-03-18T23:23:30.831Z,50.10
2017-03-18T23:24:29.400Z,50.10
2017-03-18T23:25:27.992Z,50.00
2017-03-18T23:26:26.551Z,49.90
2017-03-18T23:27:25.111Z,50.20
2017-03-18T23:28:23.755Z,50.00
2017-03-18T23:29:22.299Z,50.10
2017-03-18T23:30:21.624Z,50.00
2017-03-18T23:31:20.202Z,50.20
2017-03-18T23:32:18.746Z,50.10
2017-03-18T23:33:17.311Z,50.10
2017-03-18T23:34:17.816Z,50.10
2017-03-18T23:35:17.123Z,49.50
2017-03-18T23:36:16.430Z,49.90
2017-03-18T23:37:16.012Z,50.40
2017-03-18T23:38:14.587Z,49.70
2017-03-18T23:39:13.143Z,49.70
2017-03-18T23:40:11.702Z,49.80
2017-03-18T23:41:10.277Z,49.90
2017-03-18T23:42:20.927Z,50.00
2017-03-18T23:43:21.440Z,49.80
2017-03-18T23:44:20.009Z,49.90
2017-03-18T23:45:27.848Z,49.70
2017-03-18T23:46:29.340Z,49.80
2017-03-18T23:47:28.946Z,49.70
2017-03-18T23:48:27.497Z,50.50
2017-03-18T23:49:26.201Z,49.80
2017-03-18T23:50:27.579Z,49.60
2017-03-18T23:51:27.079Z,49.70
2017-03-18T23:52:33.941Z,49.60
2017-03-18T23:53:49.451Z,49.80
2017-03-18T23:54:51.524Z,49.70
2017-03-18T23:55:51.216Z,49.70
2017-03-18T23:56:56.972Z,49.70
2017-03-18T23:58:31.259Z,49.70
2017-03-18T23:59:32.477Z,49.70
